createdAt,value
2023-03-31T00:01:32.030Z,9.67
2023-03-31T00:03:58.817Z,9.68
2023-03-31T00:06:25.644Z,9.65
2023-03-31T00:08:56.177Z,9.63
2023-03-31T00:13:58.817Z,9.58
2023-03-31T00:16:25.343Z,9.56
2023-03-31T00:18:51.973Z,9.58
2023-03-31T00:21:19.998Z,9.56
2023-03-31T00:23:46.463Z,9.49
2023-03-31T00:26:14.180Z,9.46
2023-03-31T00:28:40.565Z,9.43
2023-03-31T00:31:07.043Z,9.42
2023-03-31T00:33:33.477Z,9.42
2023-03-31T00:36:00.014Z,9.48
2023-03-31T00:38:26.462Z,9.43
2023-03-31T00:40:53.940Z,9.47
2023-03-31T00:43:34.583Z,9.49
2023-03-31T00:46:07.298Z,9.48
2023-03-31T00:48:36.945Z,9.48
2023-03-31T00:51:06.678Z,9.51
2023-03-31T00:53:36.379Z,9.52
2023-03-31T00:56:09.323Z,9.55
2023-03-31T00:58:38.462Z,9.59
2023-03-31T01:01:05.083Z,9.58
2023-03-31T01:03:32.411Z,9.57
2023-03-31T01:06:02.680Z,9.57
2023-03-31T01:08:29.489Z,9.61
2023-03-31T01:11:02.243Z,9.57
2023-03-31T01:13:34.556Z,9.59
2023-03-31T01:16:03.248Z,9.57
2023-03-31T01:18:32.571Z,9.53
2023-03-31T01:21:24.277Z,9.55
2023-03-31T01:24:28.022Z,9.50
2023-03-31T01:27:12.961Z,9.49
2023-03-31T01:30:21.068Z,9.47
2023-03-31T01:33:14.583Z,9.44
2023-03-31T01:36:02.476Z,9.45
2023-03-31T01:38:50.892Z,9.45
2023-03-31T01:41:35.247Z,9.34
2023-03-31T01:44:10.126Z,9.33
2023-03-31T01:46:41.782Z,9.29
2023-03-31T01:49:16.384Z,9.25
2023-03-31T01:51:49.785Z,9.23
2023-03-31T01:54:23.383Z,9.23
2023-03-31T01:56:57.004Z,9.24
2023-03-31T01:59:28.110Z,9.25
2023-03-31T02:01:59.470Z,9.25
2023-03-31T02:04:31.021Z,9.25
2023-03-31T02:07:03.467Z,9.23
2023-03-31T02:09:34.061Z,9.24
2023-03-31T02:12:05.711Z,9.19
2023-03-31T02:14:35.307Z,9.17
2023-03-31T02:17:02.306Z,9.17
2023-03-31T02:19:33.527Z,9.18
2023-03-31T02:22:02.637Z,9.19
2023-03-31T02:24:30.551Z,9.19
2023-03-31T02:27:05.056Z,9.20
2023-03-31T02:29:32.444Z,9.21
2023-03-31T02:32:05.894Z,9.19
2023-03-31T02:34:34.803Z,9.22
2023-03-31T02:37:01.835Z,9.22
2023-03-31T02:39:34.074Z,9.23
2023-03-31T02:42:03.037Z,9.27
2023-03-31T02:44:29.453Z,9.27
2023-03-31T02:46:55.926Z,9.28
2023-03-31T02:49:22.436Z,9.26
2023-03-31T02:52:15.762Z,9.27
2023-03-31T02:55:10.187Z,9.29
2023-03-31T02:58:00.183Z,9.29
2023-03-31T03:00:40.579Z,9.30
2023-03-31T03:03:20.419Z,9.31
2023-03-31T03:05:53.502Z,9.31
2023-03-31T03:09:07.633Z,9.32
2023-03-31T03:11:45.118Z,9.36
2023-03-31T03:14:21.140Z,9.38
2023-03-31T03:16:53.783Z,9.39
2023-03-31T03:19:22.446Z,9.43
2023-03-31T03:21:49.464Z,9.46
2023-03-31T03:24:16.822Z,9.50
2023-03-31T03:26:43.476Z,9.53
2023-03-31T03:29:10.040Z,9.49
2023-03-31T03:31:37.769Z,9.46
2023-03-31T03:34:04.355Z,9.43
2023-03-31T03:36:30.792Z,9.40
2023-03-31T03:38:57.297Z,9.38
2023-03-31T03:41:24.069Z,9.37
2023-03-31T03:43:50.462Z,9.38
2023-03-31T03:46:16.889Z,9.39
2023-03-31T03:48:44.708Z,9.35
2023-03-31T03:51:11.135Z,9.37
2023-03-31T03:53:37.607Z,9.39
2023-03-31T03:56:04.551Z,9.38
2023-03-31T03:58:31.170Z,9.38
2023-03-31T04:00:57.648Z,9.40
2023-03-31T04:03:24.179Z,9.42
2023-03-31T04:05:52.000Z,9.43
2023-03-31T04:08:19.043Z,9.47
2023-03-31T04:10:46.772Z,9.56
2023-03-31T04:13:13.137Z,9.59
2023-03-31T04:15:39.574Z,9.57
2023-03-31T04:18:08.087Z,9.60
2023-03-31T04:20:34.596Z,9.66
2023-03-31T04:23:02.303Z,9.64
2023-03-31T04:25:28.743Z,9.65
2023-03-31T04:27:55.297Z,9.64
2023-03-31T04:30:23.140Z,9.68
2023-03-31T04:32:50.758Z,9.65
2023-03-31T04:35:17.509Z,9.70
2023-03-31T04:37:43.958Z,9.70
2023-03-31T04:40:12.082Z,9.66
2023-03-31T04:42:38.444Z,9.68
2023-03-31T04:45:05.504Z,9.72
2023-03-31T04:47:31.919Z,9.75
2023-03-31T04:49:58.378Z,9.74
2023-03-31T04:52:24.878Z,9.78
2023-03-31T04:54:51.400Z,9.77
2023-03-31T04:57:19.413Z,9.78
2023-03-31T04:59:45.846Z,9.76
2023-03-31T05:02:12.549Z,9.78
2023-03-31T05:04:39.023Z,9.74
2023-03-31T05:07:05.543Z,9.75
2023-03-31T05:09:33.496Z,9.77
2023-03-31T05:12:03.052Z,9.79
2023-03-31T05:14:30.803Z,9.77
2023-03-31T05:16:57.314Z,9.79
2023-03-31T05:19:23.879Z,9.81
2023-03-31T05:21:50.366Z,9.81
2023-03-31T05:24:16.839Z,9.78
2023-03-31T05:26:43.280Z,9.76
2023-03-31T05:29:09.682Z,9.76
2023-03-31T05:31:37.435Z,9.74
2023-03-31T05:34:03.841Z,9.76
2023-03-31T05:36:30.251Z,9.80
2023-03-31T05:38:56.706Z,9.86
2023-03-31T05:41:23.193Z,9.91
2023-03-31T05:43:49.626Z,9.99
2023-03-31T05:46:16.121Z,10.07
2023-03-31T05:48:43.914Z,10.19
2023-03-31T05:51:10.647Z,10.41
2023-03-31T05:53:37.079Z,10.52
2023-03-31T05:56:06.358Z,10.75
2023-03-31T05:58:34.140Z,10.82
2023-03-31T06:01:02.504Z,10.78
2023-03-31T06:03:29.060Z,10.71
2023-03-31T06:05:56.875Z,10.63
2023-03-31T06:08:23.311Z,10.52
2023-03-31T06:10:49.676Z,10.50
2023-03-31T06:13:16.402Z,10.49
2023-03-31T06:15:42.950Z,10.41
2023-03-31T06:18:09.484Z,10.37
2023-03-31T06:20:36.028Z,10.33
2023-03-31T06:23:03.874Z,10.29
2023-03-31T06:25:37.143Z,10.29
2023-03-31T06:28:10.349Z,10.23
2023-03-31T06:30:36.794Z,10.25
2023-03-31T06:33:03.438Z,10.20
2023-03-31T06:35:30.041Z,10.17
2023-03-31T06:37:56.413Z,10.21
2023-03-31T06:40:25.204Z,10.20
2023-03-31T06:42:51.748Z,10.24
2023-03-31T06:45:18.337Z,10.28
2023-03-31T06:47:44.876Z,10.33
2023-03-31T06:50:11.320Z,10.36
2023-03-31T06:52:40.725Z,10.43
2023-03-31T06:55:09.466Z,10.49
2023-03-31T06:57:39.765Z,10.60
2023-03-31T07:00:09.967Z,10.73
2023-03-31T07:02:36.332Z,10.80
2023-03-31T07:05:03.216Z,10.89
2023-03-31T07:07:31.395Z,10.94
2023-03-31T07:09:58.099Z,10.89
2023-03-31T07:12:24.611Z,10.91
2023-03-31T07:14:52.341Z,10.92
2023-03-31T07:17:18.783Z,10.90
2023-03-31T07:19:45.220Z,10.84
2023-03-31T07:22:11.609Z,10.78
2023-03-31T07:24:38.042Z,10.81
2023-03-31T07:27:04.535Z,10.86
2023-03-31T07:29:30.958Z,10.91
2023-03-31T07:31:58.746Z,10.95
2023-03-31T07:34:25.287Z,10.95
2023-03-31T07:36:55.505Z,10.99
2023-03-31T07:39:22.187Z,11.12
2023-03-31T07:41:48.655Z,11.20
2023-03-31T07:44:15.065Z,11.28
2023-03-31T07:46:41.736Z,11.41
2023-03-31T07:49:09.680Z,11.45
2023-03-31T07:51:36.176Z,11.46
2023-03-31T07:54:02.576Z,11.48
2023-03-31T07:56:28.976Z,11.48
2023-03-31T07:58:57.523Z,11.61
2023-03-31T08:01:25.435Z,11.76
2023-03-31T08:03:52.320Z,12.10
2023-03-31T08:06:22.388Z,12.17
2023-03-31T08:08:50.187Z,12.02
2023-03-31T08:11:16.873Z,11.95
2023-03-31T08:13:43.308Z,11.91
2023-03-31T08:16:10.304Z,11.95
2023-03-31T08:18:37.019Z,12.06
2023-03-31T08:21:03.799Z,12.23
2023-03-31T08:23:31.699Z,12.31
2023-03-31T08:26:08.397Z,12.40
2023-03-31T08:28:35.151Z,12.47
2023-03-31T08:31:03.834Z,12.26
2023-03-31T08:33:32.346Z,12.15
2023-03-31T08:36:02.386Z,12.11
2023-03-31T08:38:28.883Z,12.02
2023-03-31T08:41:01.315Z,11.91
2023-03-31T08:43:33.116Z,11.69
2023-03-31T08:46:01.691Z,11.71
2023-03-31T08:48:30.564Z,11.59
2023-03-31T08:51:02.960Z,11.47
2023-03-31T08:53:32.856Z,11.44
2023-03-31T08:56:00.649Z,11.37
2023-03-31T08:58:39.712Z,11.26
2023-03-31T09:01:16.542Z,11.22
2023-03-31T09:03:51.105Z,11.18
2023-03-31T09:06:24.777Z,11.33
2023-03-31T09:08:54.827Z,11.33
2023-03-31T09:11:32.932Z,11.25
2023-03-31T09:14:24.918Z,11.13
2023-03-31T09:16:58.456Z,11.15
2023-03-31T09:19:35.351Z,11.01
2023-03-31T09:22:04.499Z,11.06
2023-03-31T09:24:36.567Z,11.06
2023-03-31T09:27:08.364Z,11.01
2023-03-31T09:29:43.103Z,11.04
2023-03-31T09:32:15.789Z,11.12
2023-03-31T09:34:44.425Z,11.10
2023-03-31T09:37:11.618Z,11.17
2023-03-31T09:39:38.200Z,11.27
2023-03-31T09:42:12.272Z,11.16
2023-03-31T09:44:40.084Z,11.11
2023-03-31T09:47:12.102Z,11.07
2023-03-31T09:49:39.460Z,11.06
2023-03-31T09:54:44.497Z,11.10
2023-03-31T09:57:24.453Z,11.10
2023-03-31T09:59:51.954Z,11.03
2023-03-31T10:02:36.076Z,10.98
2023-03-31T10:05:04.192Z,10.96
2023-03-31T10:07:30.999Z,10.90
2023-03-31T10:09:57.578Z,10.83
2023-03-31T10:12:28.255Z,10.82
2023-03-31T10:15:03.532Z,10.77
2023-03-31T10:17:32.546Z,10.73
2023-03-31T10:20:19.115Z,10.65
2023-03-31T10:22:45.969Z,10.56
2023-03-31T10:25:17.237Z,10.55
2023-03-31T10:27:48.133Z,10.47
2023-03-31T10:30:20.909Z,10.40
2023-03-31T10:32:49.956Z,10.38
2023-03-31T10:35:26.280Z,10.30
2023-03-31T10:37:56.716Z,10.31
2023-03-31T10:40:25.876Z,10.32
2023-03-31T10:43:02.206Z,10.31
2023-03-31T10:45:37.259Z,10.28
2023-03-31T10:48:06.993Z,10.23
2023-03-31T10:50:37.803Z,10.19
2023-03-31T10:53:06.152Z,10.17
2023-03-31T10:55:42.258Z,10.17
2023-03-31T10:58:31.552Z,10.07
2023-03-31T11:01:11.253Z,10.08
2023-03-31T11:03:55.213Z,10.05
2023-03-31T11:06:28.128Z,10.00
2023-03-31T11:09:09.698Z,10.05
2023-03-31T11:11:56.407Z,10.06
2023-03-31T11:14:33.656Z,10.02
2023-03-31T11:17:05.380Z,9.97
2023-03-31T11:19:42.579Z,9.98
2023-03-31T11:22:16.925Z,10.01
2023-03-31T11:25:05.957Z,10.03
2023-03-31T11:27:48.598Z,10.05
2023-03-31T11:30:21.910Z,10.07
2023-03-31T11:33:00.990Z,9.98
2023-03-31T11:35:42.359Z,10.01
2023-03-31T11:38:24.058Z,10.01
2023-03-31T11:40:57.547Z,10.00
2023-03-31T11:43:30.238Z,10.00
2023-03-31T11:46:01.967Z,9.99
2023-03-31T11:48:39.006Z,9.97
2023-03-31T11:51:16.988Z,9.85
2023-03-31T11:53:45.132Z,9.73
2023-03-31T11:56:12.900Z,9.80
2023-03-31T11:58:45.359Z,9.69
2023-03-31T12:01:23.220Z,9.71
2023-03-31T12:03:57.149Z,9.70
2023-03-31T12:06:28.154Z,9.68
2023-03-31T12:09:09.536Z,9.73
2023-03-31T12:11:43.083Z,9.79
2023-03-31T12:14:21.812Z,9.90
2023-03-31T12:16:52.805Z,9.96
2023-03-31T12:19:24.425Z,9.97
2023-03-31T12:21:56.849Z,10.04
2023-03-31T12:24:23.246Z,10.11
2023-03-31T12:26:58.502Z,10.20
2023-03-31T12:29:30.542Z,10.18
2023-03-31T12:32:01.085Z,10.20
2023-03-31T12:34:30.062Z,10.20
2023-03-31T12:37:13.315Z,10.24
2023-03-31T12:39:52.624Z,10.22
2023-03-31T12:42:39.714Z,10.20
2023-03-31T12:45:17.966Z,10.27
2023-03-31T12:48:08.091Z,10.39
2023-03-31T12:50:51.409Z,10.42
2023-03-31T12:53:28.606Z,10.59
2023-03-31T12:55:57.116Z,10.75
2023-03-31T12:58:45.780Z,11.08
2023-03-31T13:01:15.210Z,11.21
2023-03-31T13:03:49.420Z,11.37
2023-03-31T13:06:53.952Z,11.42
2023-03-31T13:09:40.387Z,11.69
2023-03-31T13:12:08.066Z,11.68
2023-03-31T13:14:38.041Z,11.68
2023-03-31T13:17:15.681Z,11.71
2023-03-31T13:19:45.971Z,11.79
2023-03-31T13:22:32.755Z,12.02
2023-03-31T13:25:37.211Z,12.23
2023-03-31T13:28:26.357Z,12.19
2023-03-31T13:30:55.668Z,12.10
2023-03-31T13:33:30.894Z,11.98
2023-03-31T13:36:25.273Z,12.15
2023-03-31T13:39:05.933Z,12.17
2023-03-31T13:41:44.447Z,12.33
2023-03-31T13:44:48.117Z,12.32
2023-03-31T13:47:34.064Z,12.27
2023-03-31T13:50:17.281Z,12.58
2023-03-31T13:52:53.186Z,12.96
2023-03-31T13:55:34.702Z,13.15
2023-03-31T13:58:33.602Z,13.59
2023-03-31T14:01:40.008Z,13.43
2023-03-31T14:04:27.367Z,13.13
2023-03-31T14:06:59.074Z,12.92
2023-03-31T14:09:32.323Z,12.82
2023-03-31T14:11:59.391Z,12.92
2023-03-31T14:14:25.839Z,12.84
2023-03-31T14:16:56.452Z,12.47
2023-03-31T14:19:44.701Z,12.11
2023-03-31T14:22:20.007Z,11.96
2023-03-31T14:24:54.059Z,11.84
2023-03-31T14:27:35.655Z,11.73
2023-03-31T14:30:10.672Z,11.66
2023-03-31T14:32:44.373Z,11.58
2023-03-31T14:35:28.326Z,11.49
2023-03-31T14:38:09.177Z,11.23
2023-03-31T14:40:47.254Z,10.42
2023-03-31T14:43:20.019Z,10.10
2023-03-31T14:45:46.436Z,9.74
2023-03-31T14:48:14.596Z,9.58
2023-03-31T14:50:44.267Z,9.49
2023-03-31T14:53:14.651Z,9.47
2023-03-31T14:55:57.464Z,9.54
2023-03-31T14:58:29.707Z,9.60
2023-03-31T15:00:56.336Z,9.65
2023-03-31T15:03:25.364Z,9.76
2023-03-31T15:05:57.378Z,9.86
2023-03-31T15:08:24.662Z,9.87
2023-03-31T15:11:02.417Z,9.92
2023-03-31T15:13:42.529Z,9.82
2023-03-31T15:16:20.659Z,9.83
2023-03-31T15:18:47.402Z,9.88
2023-03-31T15:21:20.696Z,10.09
2023-03-31T15:23:47.393Z,10.26
2023-03-31T15:26:24.932Z,10.39
2023-03-31T15:28:59.904Z,10.43
2023-03-31T15:31:26.751Z,10.41
2023-03-31T15:33:53.966Z,10.37
2023-03-31T15:36:21.365Z,10.43
2023-03-31T15:38:56.016Z,10.32
2023-03-31T15:44:02.855Z,10.23
2023-03-31T15:46:50.138Z,10.17
2023-03-31T15:49:20.859Z,10.11
2023-03-31T15:51:48.223Z,10.06
2023-03-31T15:54:30.979Z,10.02
2023-03-31T15:56:59.674Z,10.08
2023-03-31T15:59:34.401Z,10.13
2023-03-31T16:02:13.137Z,10.11
2023-03-31T16:04:39.749Z,9.99
2023-03-31T16:07:08.734Z,9.90
2023-03-31T16:09:44.309Z,9.82
2023-03-31T16:12:15.833Z,9.77
2023-03-31T16:14:47.757Z,9.67
2023-03-31T16:17:26.023Z,9.60
2023-03-31T16:19:59.585Z,9.61
2023-03-31T16:22:35.214Z,9.65
2023-03-31T16:25:01.895Z,9.74
2023-03-31T16:27:28.573Z,9.73
2023-03-31T16:30:07.118Z,9.78
2023-03-31T16:32:35.139Z,9.77
2023-03-31T16:35:03.716Z,9.80
2023-03-31T16:37:30.377Z,9.78
2023-03-31T16:39:56.988Z,9.79
2023-03-31T16:42:23.925Z,9.78
2023-03-31T16:45:09.589Z,9.76
2023-03-31T16:47:38.148Z,9.71
2023-03-31T16:50:05.703Z,9.70
2023-03-31T16:52:32.145Z,9.71
2023-03-31T16:54:58.850Z,9.67
2023-03-31T16:57:25.398Z,9.64
2023-03-31T16:59:52.257Z,9.64
2023-03-31T17:02:18.636Z,9.67
2023-03-31T17:04:46.471Z,9.68
2023-03-31T17:07:12.854Z,9.66
2023-03-31T17:09:39.246Z,9.60
2023-03-31T17:12:05.784Z,9.57
2023-03-31T17:14:32.161Z,9.54
2023-03-31T17:16:58.606Z,9.48
2023-03-31T17:19:25.133Z,9.45
2023-03-31T17:21:53.004Z,9.45
2023-03-31T17:24:19.447Z,9.44
2023-03-31T17:26:45.915Z,9.42
2023-03-31T17:29:14.561Z,9.40
2023-03-31T17:31:41.862Z,9.42
2023-03-31T17:34:08.354Z,9.42
2023-03-31T17:36:34.901Z,9.41
2023-03-31T17:39:03.335Z,9.41
2023-03-31T17:41:29.772Z,9.42
2023-03-31T17:43:56.218Z,9.39
2023-03-31T17:46:23.297Z,9.35
2023-03-31T17:48:49.794Z,9.34
2023-03-31T17:51:18.111Z,9.35
2023-03-31T17:53:46.678Z,9.38
2023-03-31T17:56:16.526Z,9.43
2023-03-31T17:58:43.260Z,9.45
2023-03-31T18:01:10.812Z,9.50
2023-03-31T18:03:37.345Z,9.54
2023-03-31T18:06:05.115Z,9.58
2023-03-31T18:08:31.697Z,9.57
2023-03-31T18:10:58.185Z,9.53
2023-03-31T18:13:28.141Z,9.56
2023-03-31T18:15:54.741Z,9.53
2023-03-31T18:18:21.650Z,9.52
2023-03-31T18:20:48.101Z,9.53
2023-03-31T18:23:14.609Z,9.54
2023-03-31T18:25:42.204Z,9.53
2023-03-31T18:28:08.758Z,9.52
2023-03-31T18:30:36.733Z,9.49
2023-03-31T18:33:03.612Z,9.49
2023-03-31T18:35:30.217Z,9.49
2023-03-31T18:37:56.835Z,9.50
2023-03-31T18:40:23.535Z,9.51
2023-03-31T18:42:50.013Z,9.45
2023-03-31T18:45:17.466Z,9.43
2023-03-31T18:47:45.473Z,9.40
2023-03-31T18:50:12.104Z,9.38
2023-03-31T18:52:38.766Z,9.37
2023-03-31T18:55:06.247Z,9.35
2023-03-31T18:57:32.998Z,9.32
2023-03-31T19:00:02.023Z,9.32
2023-03-31T19:02:28.623Z,9.28
2023-03-31T19:04:56.534Z,9.31
2023-03-31T19:07:25.775Z,9.30
2023-03-31T19:09:52.230Z,9.28
2023-03-31T19:12:18.669Z,9.27
2023-03-31T19:14:45.140Z,9.24
2023-03-31T19:17:13.602Z,9.25
2023-03-31T19:19:40.016Z,9.24
2023-03-31T19:22:13.500Z,9.24
2023-03-31T19:24:39.999Z,9.23
2023-03-31T19:27:06.558Z,9.23
2023-03-31T19:29:34.482Z,9.21
2023-03-31T19:32:01.796Z,9.25
2023-03-31T19:34:31.445Z,9.26
2023-03-31T19:36:57.967Z,9.21
2023-03-31T19:39:33.171Z,9.26
2023-03-31T19:41:59.662Z,9.21
2023-03-31T19:44:29.194Z,9.26
2023-03-31T19:46:55.631Z,9.20
2023-03-31T19:49:24.910Z,9.19
2023-03-31T19:51:53.678Z,9.15
2023-03-31T19:54:20.904Z,9.16
2023-03-31T19:56:48.973Z,9.19
2023-03-31T19:59:15.626Z,9.16
2023-03-31T20:01:45.298Z,9.16
2023-03-31T20:04:12.029Z,9.19
2023-03-31T20:06:39.936Z,9.18
2023-03-31T20:09:06.396Z,9.18
2023-03-31T20:11:33.000Z,9.19
2023-03-31T20:14:04.103Z,9.17
2023-03-31T20:16:31.531Z,9.16
2023-03-31T20:18:59.937Z,9.15
2023-03-31T20:21:28.078Z,9.12
2023-03-31T20:23:55.102Z,9.13
2023-03-31T20:26:26.470Z,9.18
2023-03-31T20:28:55.392Z,9.15
2023-03-31T20:31:26.450Z,9.10
2023-03-31T20:33:54.036Z,9.05
2023-03-31T20:36:22.834Z,9.03
2023-03-31T20:38:50.699Z,8.99
2023-03-31T20:41:18.148Z,8.96
2023-03-31T20:43:44.694Z,8.93
2023-03-31T20:46:11.420Z,8.93
2023-03-31T20:48:40.864Z,8.93
2023-03-31T20:51:09.023Z,8.93
2023-03-31T20:53:36.503Z,8.91
2023-03-31T20:56:03.213Z,8.91
2023-03-31T20:58:41.111Z,8.93
2023-03-31T21:01:09.347Z,8.95
2023-03-31T21:03:35.960Z,8.96
2023-03-31T21:06:05.821Z,8.98
2023-03-31T21:08:32.745Z,8.94
2023-03-31T21:10:59.218Z,8.96
2023-03-31T21:13:27.058Z,8.95
2023-03-31T21:15:53.848Z,8.93
2023-03-31T21:18:20.421Z,8.91
2023-03-31T21:20:50.354Z,8.89
2023-03-31T21:23:18.319Z,8.89
2023-03-31T21:25:46.645Z,8.91
2023-03-31T21:28:13.030Z,8.91
2023-03-31T21:30:39.458Z,8.93
2023-03-31T21:33:05.897Z,8.94
2023-03-31T21:35:32.389Z,8.94
2023-03-31T21:37:59.000Z,8.93
2023-03-31T21:40:26.714Z,8.95
2023-03-31T21:42:53.127Z,8.93
2023-03-31T21:45:19.598Z,8.96
2023-03-31T21:47:46.068Z,8.96
2023-03-31T21:50:12.543Z,8.96
2023-03-31T21:52:38.940Z,8.92
2023-03-31T21:55:05.724Z,8.94
2023-03-31T21:57:33.618Z,8.93
2023-03-31T22:00:00.117Z,8.92
2023-03-31T22:02:26.634Z,8.92
2023-03-31T22:04:53.090Z,8.93
2023-03-31T22:07:19.593Z,8.91
2023-03-31T22:09:51.468Z,8.90
2023-03-31T22:12:17.874Z,8.92
2023-03-31T22:14:45.607Z,8.91
2023-03-31T22:17:12.047Z,8.91
2023-03-31T22:19:38.511Z,8.93
2023-03-31T22:22:04.918Z,8.93
2023-03-31T22:24:31.362Z,8.92
2023-03-31T22:26:57.991Z,8.92
2023-03-31T22:29:24.850Z,8.88
2023-03-31T22:31:53.084Z,8.85
2023-03-31T22:34:19.647Z,8.88
2023-03-31T22:36:46.616Z,8.89
2023-03-31T22:39:13.098Z,8.88
2023-03-31T22:41:39.583Z,8.88
2023-03-31T22:44:07.878Z,8.83
2023-03-31T22:46:34.781Z,8.82
2023-03-31T22:49:02.891Z,8.80
2023-03-31T22:51:29.825Z,8.79
2023-03-31T22:53:56.701Z,8.78
2023-03-31T22:56:24.355Z,8.73
2023-03-31T22:58:52.106Z,8.70
2023-03-31T23:01:20.590Z,8.71
2023-03-31T23:03:47.557Z,8.71
2023-03-31T23:06:16.458Z,8.72
2023-03-31T23:08:43.284Z,8.73
2023-03-31T23:11:12.241Z,8.72
2023-03-31T23:13:39.259Z,8.72
2023-03-31T23:16:07.001Z,8.70
2023-03-31T23:18:33.822Z,8.69
2023-03-31T23:21:03.030Z,8.69
2023-03-31T23:23:30.871Z,8.70
2023-03-31T23:26:00.157Z,8.69
2023-03-31T23:28:26.596Z,8.69
2023-03-31T23:30:53.102Z,8.69
2023-03-31T23:33:19.542Z,8.70
2023-03-31T23:35:45.900Z,8.69
2023-03-31T23:38:14.234Z,8.70
2023-03-31T23:40:41.980Z,8.68
2023-03-31T23:43:08.513Z,8.70
2023-03-31T23:45:34.941Z,8.68
2023-03-31T23:48:01.418Z,8.69
2023-03-31T23:50:27.873Z,8.70
2023-03-31T23:52:54.298Z,8.69
2023-03-31T23:55:20.901Z,8.68
2023-03-31T23:57:48.700Z,8.67
